• Join FlightAware (Why Join?)
  • Login
  • US Flag 
01:43AM EDT


 

Airport Tracker/Info


-or-


 

Live Flight TrackerFlight Track Log ✈ FIN666 ✈ 25-Jan-2014 ✈ EKCH / CPH - EFHK / HEL

Flight Track Log - Related Links

Times and Time Zones

All times are in EST time to prevent confusion due to time zone crossing. See the FIN666 flight status page for this flight to view local times or setup timezone preferences in your user account.

Time Position Orientation Groundspeed Altitude Reporting Facility
EST Latitude Longitude Course Direction KTS MPH feet Rate Location/Type
07:33AM 55.8093 13.0510 49° Northeast  Level Estimated
07:34AM 55.8729 13.1836 49° Northeast  Level Estimated
07:35AM 55.9363 13.3166 50° Northeast  Level Estimated
07:36AM 55.9995 13.4500 50° Northeast  Level Estimated
07:37AM 56.0685 13.5964 50° Northeast  Level Estimated
07:38AM 56.1373 13.7433 50° Northeast  Level Estimated
07:39AM 56.2059 13.8907 50° Northeast  Level Estimated
07:40AM 56.2744 14.0387 50° Northeast  Level Estimated
07:41AM 56.3427 14.1871 50° Northeast  Level Estimated
07:42AM 56.4108 14.3362 50° Northeast  Level Estimated
07:43AM 56.4815 14.4920 51° Northeast  Level Estimated
07:44AM 56.5521 14.6483 51° Northeast  Level Estimated
07:45AM 56.6224 14.8053 51° Northeast  Level Estimated
07:46AM 56.6926 14.9628 51° Northeast  Level Estimated
07:47AM 56.7625 15.1209 51° Northeast  Level Estimated
07:48AM 56.8323 15.2797 51° Northeast  Level Estimated
07:49AM 56.9018 15.4390 51° Northeast  Level Estimated
07:50AM 56.9712 15.5989 51° Northeast  Level Estimated
07:51AM 57.0403 15.7594 52° Northeast  Level Estimated
07:52AM 57.1093 15.9205 52° Northeast  Level Estimated
07:53AM 57.1780 16.0822 52° Northeast  Level Estimated
07:54AM 57.2465 16.2445 52° Northeast  Level Estimated
07:55AM 57.3148 16.4074 52° Northeast  Level Estimated
07:56AM 57.3829 16.5709 52° Northeast  Level Estimated
07:57AM 57.4499 16.7327 52° Northeast  Level Estimated
07:58AM 57.5166 16.8952 53° Northeast  Level Estimated
07:59AM 57.5832 17.0583 53° Northeast  Level Estimated
08:00AM 57.6495 17.2219 53° Northeast  Level Estimated
08:01AM 57.7156 17.3862 53° Northeast  Level Estimated
08:02AM 57.7815 17.5510 53° Northeast  Level Estimated
08:03AM 57.8472 17.7165 53° Northeast  Level Estimated
08:04AM 57.9127 17.8825 53° Northeast  Level Estimated
08:05AM 57.9780 18.0492 54° Northeast  Level Estimated
08:06AM 58.0430 18.2164 54° Northeast  Level Estimated
08:07AM 58.1078 18.3843 54° Northeast  Level Estimated
08:08AM 58.1724 18.5528 54° Northeast  Level Estimated
08:09AM 58.2368 18.7219 54° Northeast  Level Estimated
08:10AM 58.3009 18.8916 54° Northeast  Level Estimated
08:11AM 58.3649 19.0619 54° Northeast  Level Estimated
08:12AM 58.4286 19.2328 55° Northeast  Level Estimated
08:13AM 58.4921 19.4044 55° Northeast  Level Estimated
08:14AM 58.5553 19.5766 55° Northeast  Level Estimated
08:15AM 58.6183 19.7494 55° Northeast  Level Estimated
08:16AM 58.6811 19.9228 55° Northeast  Level Estimated
08:17AM 58.7436 20.0968 55° Northeast  Level Estimated
08:18AM 58.8059 20.2715 55° Northeast  Level Estimated
08:19AM 58.8680 20.4468 56° Northeast  Level Estimated
08:20AM 58.9298 20.6227 56° Northeast  Level Estimated
08:21AM 58.9914 20.7993 56° Northeast  Level Estimated
08:22AM 59.0528 20.9765 56° Northeast  Level Estimated
08:23AM 59.1139 21.1543 56° Northeast  Level Estimated
08:24AM 59.1748 21.3328 56° Northeast  Level Estimated
08:25AM 59.2354 21.5119 56° Northeast  Level Estimated
08:26AM 59.2941 21.6868 57° Northeast  Level Estimated
08:27AM 59.3527 21.8623 57° Northeast  Level Estimated
08:28AM 59.4110 22.0385 57° Northeast  Level Estimated
08:29AM 59.4690 22.2152 57° Northeast  Level Estimated
08:30AM 59.5268 22.3926 57° Northeast  Level Estimated
08:31AM 59.5844 22.5705 57° Northeast  Level Estimated
08:32AM 59.6418 22.7491 58° Northeast  Level Estimated
08:33AM 59.6988 22.9283 58° Northeast  Level Estimated
08:34AM 59.7557 23.1081 58° Northeast  Level Estimated
08:35AM 59.8123 23.2885 58° Northeast  Level Estimated
08:36AM 59.8686 23.4695 58° Northeast  Level Estimated
08:37AM 59.9247 23.6511 58° Northeast  Level Estimated
08:38AM 59.9806 23.8334 58° Northeast  Level Estimated
08:39AM 60.0362 24.0162 59° Northeast  Level Estimated
08:40AM 60.0915 24.1997 59° Northeast  Level Estimated
08:41AM 60.1466 24.3838 59° Northeast  Level Estimated
08:42AM 60.2015 24.5685 59° Northeast  Level Estimated
08:43AM 60.2561 24.7538 59° Northeast  Level Estimated
08:44AM 60.3104 24.9398 59° Northeast  Level Estimated
08:45AM 60.3172 24.9633 60° Northeast  Level Estimated
08:46AM 60.3172 24.9633 37° Northeast  Level Estimated
08:47AM 60.3172 24.9633 37° Northeast  Level Estimated
08:48AM 60.3172 24.9633 37° Northeast  Level Estimated
08:49AM 60.3172 24.9633 37° Northeast  Level Estimated
08:50AM 60.3172 24.9633 37° Northeast  Level Estimated
08:51AM 60.3172 24.9633 37° Northeast  Level Estimated
08:52AM 60.3172 24.9633 37° Northeast  Level Estimated